Time;durP1;ratioP1;P1;durP2;ratioP2;P2;SDS_P1;SDS_P2;PMS_P1;PMS_P2;Temp;Humidity;BMP_temperature;BMP_pressure;BME280_temperature;BME280_humidity;BME280_pressure;Samples;Min_cycle;Max_cycle;Signal;HPM_P1;HPM_P2
2022/12/13 00:01:09;;;;;;;;;;;;;;;0.70;97.49;97460.16;5068778;28;19956;-61
2022/12/13 00:03:37;;;;;;;;;;;;;;;0.70;96.67;97461.97;5060745;28;19959;-61
2022/12/13 00:06:04;;;;;;;;;;;;;;;0.50;96.93;97456.81;5068613;28;19925;-61
2022/12/13 00:08:30;;;;;;;;;;;;;;;0.36;99.13;97457.91;5068774;28;19952;-60
2022/12/13 00:10:58;;;;;;;;;;;;;;;0.41;99.29;97461.50;5068547;28;19936;-59
2022/12/13 00:13:25;;;;;;;;;;;;;;;0.26;99.82;97460.16;5069056;28;19935;-61
2022/12/13 00:15:55;;;;;;;;;;;;;;;0.40;100.00;97454.63;5068899;28;19990;-60
2022/12/13 00:18:21;;;;;;;;;;;;;;;0.47;99.58;97444.09;5068817;28;19948;-60
2022/12/13 00:20:49;;;;;;;;;;;;;;;0.42;98.89;97443.94;5068660;28;20012;-60
2022/12/13 00:23:15;;;;;;;;;;;;;;;0.17;97.54;97443.03;5067808;28;19968;-60
2022/12/13 00:25:42;;;;;;;;;;;;;;;-0.44;97.90;97453.91;5068632;28;20428;-60
2022/12/13 00:28:08;;;;;;;;;;;;;;;-0.98;100.00;97448.09;5068715;28;19964;-60
2022/12/13 00:30:34;;;;;;;;;;;;;;;-0.93;100.00;97453.56;5060755;28;19932;-59
2022/12/13 00:33:01;;;;;;;;;;;;;;;-1.56;100.00;97460.09;5068643;28;20000;-60
2022/12/13 00:35:27;;;;;;;;;;;;;;;-1.53;100.00;97455.28;5068382;28;19964;-59
2022/12/13 00:37:55;;;;;;;;;;;;;;;-1.49;100.00;97456.50;5068634;28;19932;-60
2022/12/13 00:40:21;;;;;;;;;;;;;;;-1.26;100.00;97446.47;5068400;28;19925;-59
2022/12/13 00:42:48;;;;;;;;;;;;;;;-0.88;100.00;97449.31;5068294;28;19925;-59
2022/12/13 00:45:14;;;;;;;;;;;;;;;-1.40;100.00;97444.84;5068308;28;19932;-59
2022/12/13 00:47:40;;;;;;;;;;;;;;;-1.90;100.00;97451.31;5068318;28;20019;-59
2022/12/13 00:50:07;;;;;;;;;;;;;;;-1.96;100.00;97443.44;5068486;28;19953;-60
2022/12/13 00:52:33;;;;;;;;;;;;;;;-1.75;100.00;97451.19;5067344;28;19971;-60
2022/12/13 00:55:01;;;;;;;;;;;;;;;-1.88;100.00;97443.28;5070148;28;19995;-58
2022/12/13 00:57:27;;;;;;;;;;;;;;;-1.90;100.00;97447.91;5072305;28;19992;-59
2022/12/13 00:59:54;;;;;;;;;;;;;;;-1.70;100.00;97446.97;5072192;28;19975;-59
2022/12/13 01:02:20;;;;;;;;;;;;;;;-1.11;100.00;97447.06;5072081;28;19925;-60
2022/12/13 01:04:49;;;;;;;;;;;;;;;-0.63;100.00;97436.38;5072098;28;19967;-59
2022/12/13 01:07:15;;;;;;;;;;;;;;;-0.18;100.00;97434.66;5072145;28;20529;-60
2022/12/13 01:09:42;;;;;;;;;;;;;;;-0.07;100.00;97434.84;5072027;28;19924;-60
2022/12/13 01:12:10;;;;;;;;;;;;;;;0.07;100.00;97437.41;5072009;28;19924;-58
2022/12/13 01:14:37;;;;;;;;;;;;;;;0.20;100.00;97426.84;5064096;28;19932;-58
2022/12/13 01:17:03;;;;;;;;;;;;;;;0.24;98.85;97428.88;5071882;28;19967;-59
2022/12/13 01:19:29;;;;;;;;;;;;;;;0.28;98.22;97431.88;5071880;28;19995;-59
2022/12/13 01:21:56;;;;;;;;;;;;;;;0.29;97.23;97420.34;5071861;28;19932;-60
2022/12/13 01:24:23;;;;;;;;;;;;;;;0.30;96.59;97428.03;5070581;28;19956;-59
2022/12/13 01:26:50;;;;;;;;;;;;;;;0.05;94.88;97428.94;5071845;28;19939;-59
2022/12/13 01:29:17;;;;;;;;;;;;;;;-0.42;97.34;97437.97;5071781;28;19960;-60
2022/12/13 01:31:44;;;;;;;;;;;;;;;-0.85;100.00;97432.38;5071856;28;19963;-59
2022/12/13 01:34:11;;;;;;;;;;;;;;;-0.79;100.00;97432.38;5071927;28;19972;-59
2022/12/13 01:36:37;;;;;;;;;;;;;;;-0.95;100.00;97422.28;5072140;28;19989;-59
2022/12/13 01:39:04;;;;;;;;;;;;;;;-1.35;100.00;97431.94;5071729;28;19924;-59
2022/12/13 01:41:32;;;;;;;;;;;;;;;-1.88;100.00;97424.94;5071750;28;19925;-59
2022/12/13 01:44:01;;;;;;;;;;;;;;;-1.90;100.00;97429.59;5071845;28;19964;-59
2022/12/13 01:46:30;;;;;;;;;;;;;;;-1.21;100.00;97417.06;5072232;28;19960;-59
2022/12/13 01:49:02;;;;;;;;;;;;;;;-0.78;100.00;97418.25;5071638;28;19936;-60
2022/12/13 01:51:31;;;;;;;;;;;;;;;-0.62;100.00;97422.28;5071584;28;19951;-59
2022/12/13 01:53:59;;;;;;;;;;;;;;;-0.36;100.00;97419.59;5070315;28;19956;-59
2022/12/13 01:56:29;;;;;;;;;;;;;;;-0.21;100.00;97406.22;5071425;28;19975;-59
2022/12/13 01:58:56;;;;;;;;;;;;;;;-0.30;100.00;97410.91;5071261;28;19992;-59
2022/12/13 02:01:23;;;;;;;;;;;;;;;-0.15;100.00;97408.00;5071140;28;19988;-60
2022/12/13 02:03:50;;;;;;;;;;;;;;;-0.06;99.93;97407.56;5071210;28;19960;-59
2022/12/13 02:06:19;;;;;;;;;;;;;;;-0.03;98.65;97407.16;5070733;28;19931;-60
2022/12/13 02:08:46;;;;;;;;;;;;;;;0.06;97.73;97399.06;5071035;28;19984;-58
2022/12/13 02:11:13;;;;;;;;;;;;;;;0.08;96.60;97399.66;5070870;28;19951;-59
2022/12/13 02:13:39;;;;;;;;;;;;;;;0.01;96.28;97402.31;5071134;28;19960;-60
2022/12/13 02:16:10;;;;;;;;;;;;;;;-0.17;96.85;97399.56;5071186;28;20014;-59
2022/12/13 02:18:45;;;;;;;;;;;;;;;-0.29;98.30;97404.66;5063131;28;19984;-58
2022/12/13 02:21:19;;;;;;;;;;;;;;;-0.12;98.89;97399.72;5070612;28;20037;-59
2022/12/13 02:24:00;;;;;;;;;;;;;;;-0.09;98.10;97408.00;5069385;28;19992;-59
2022/12/13 02:26:39;;;;;;;;;;;;;;;0.02;97.20;97403.13;5070789;28;19928;-59
2022/12/13 02:29:18;;;;;;;;;;;;;;;-0.03;96.15;97394.03;5070784;28;19964;-59
2022/12/13 02:31:49;;;;;;;;;;;;;;;0.01;95.45;97391.81;5063615;28;19960;-58
2022/12/13 02:34:20;;;;;;;;;;;;;;;0.03;95.18;97399.47;5070587;28;19988;-60
2022/12/13 02:36:54;;;;;;;;;;;;;;;0.02;94.59;97398.69;5070525;28;20006;-60
2022/12/13 02:39:22;;;;;;;;;;;;;;;0.04;94.85;97395.81;5070192;28;19961;-59
2022/12/13 02:41:49;;;;;;;;;;;;;;;-0.02;94.14;97394.84;5070159;28;19931;-59
2022/12/13 02:44:18;;;;;;;;;;;;;;;-0.23;94.31;97392.50;5069913;28;19939;-59
2022/12/13 02:46:51;;;;;;;;;;;;;;;-0.53;97.78;97394.81;5070417;28;19936;-59
2022/12/13 02:49:18;;;;;;;;;;;;;;;-0.49;98.93;97396.00;5070097;28;20020;-59
2022/12/13 02:51:45;;;;;;;;;;;;;;;-0.33;98.80;97394.75;5069881;28;19925;-60
2022/12/13 02:54:11;;;;;;;;;;;;;;;-0.33;98.75;97384.25;5069215;28;20418;-60
2022/12/13 02:56:38;;;;;;;;;;;;;;;-0.45;98.81;97397.22;5070393;28;20031;-60
2022/12/13 02:59:09;;;;;;;;;;;;;;;-1.06;98.67;97393.28;5070091;28;19984;-59
2022/12/13 03:01:43;;;;;;;;;;;;;;;-1.12;100.00;97398.31;5061860;28;19956;-60
2022/12/13 03:04:15;;;;;;;;;;;;;;;-1.56;100.00;97394.63;5070137;28;19971;-59
2022/12/13 03:06:50;;;;;;;;;;;;;;;-1.91;100.00;97392.13;5069510;28;19939;-60
2022/12/13 03:09:25;;;;;;;;;;;;;;;-1.68;100.00;97374.28;5069503;28;19928;-60
2022/12/13 03:14:55;;;;;;;;;;;;;;;-1.10;100.00;97385.81;5063328;28;19963;-60
2022/12/13 03:17:24;;;;;;;;;;;;;;;-0.79;100.00;97382.56;5068461;28;19981;-59
2022/12/13 03:19:53;;;;;;;;;;;;;;;-0.60;100.00;97386.16;5068955;28;19994;-58
2022/12/13 03:22:19;;;;;;;;;;;;;;;-0.70;100.00;97383.16;5068133;28;19924;-59
2022/12/13 03:24:46;;;;;;;;;;;;;;;-1.16;100.00;97376.16;5069154;28;19931;-58
2022/12/13 03:27:12;;;;;;;;;;;;;;;-1.59;100.00;97379.31;5068969;28;19980;-59
2022/12/13 03:29:39;;;;;;;;;;;;;;;-1.71;100.00;97376.50;5069231;28;19935;-58
2022/12/13 03:32:05;;;;;;;;;;;;;;;-1.66;100.00;97371.47;5069185;28;19956;-59
2022/12/13 03:34:31;;;;;;;;;;;;;;;-1.01;100.00;97362.00;5068981;28;19983;-59
2022/12/13 03:36:59;;;;;;;;;;;;;;;-0.64;100.00;97371.84;5069103;28;19988;-58
2022/12/13 03:39:26;;;;;;;;;;;;;;;-0.69;100.00;97369.03;5069234;28;19984;-59
2022/12/13 03:41:52;;;;;;;;;;;;;;;-0.86;100.00;97368.66;5068723;28;19978;-59
2022/12/13 03:44:19;;;;;;;;;;;;;;;-0.82;100.00;97366.44;5068957;28;19925;-59
2022/12/13 03:46:45;;;;;;;;;;;;;;;-0.79;100.00;97360.78;5068946;28;20019;-59
2022/12/13 03:49:11;;;;;;;;;;;;;;;-0.74;100.00;97360.97;5069027;28;19968;-59
2022/12/13 03:51:38;;;;;;;;;;;;;;;-1.01;100.00;97352.34;5068986;28;19967;-61
2022/12/13 03:54:05;;;;;;;;;;;;;;;-0.84;100.00;97343.06;5067969;28;19980;-59
2022/12/13 03:56:32;;;;;;;;;;;;;;;-1.67;100.00;97352.31;5068867;28;20020;-60
2022/12/13 03:58:58;;;;;;;;;;;;;;;-1.61;100.00;97345.50;5068897;28;19935;-60
2022/12/13 04:01:24;;;;;;;;;;;;;;;-1.08;100.00;97340.28;5068857;28;19956;-60
2022/12/13 04:03:51;;;;;;;;;;;;;;;-0.98;100.00;97343.25;5068691;28;20023;-58
2022/12/13 04:06:17;;;;;;;;;;;;;;;-1.04;100.00;97338.84;5068848;28;19983;-59
2022/12/13 04:08:43;;;;;;;;;;;;;;;-1.89;100.00;97345.63;5068847;28;19988;-59
2022/12/13 04:13:55;;;;;;;;;;;;;;;-2.39;100.00;97344.28;5069031;28;19928;-59
2022/12/13 04:16:22;;;;;;;;;;;;;;;-1.97;100.00;97345.81;5068459;28;19936;-60
2022/12/13 04:18:49;;;;;;;;;;;;;;;-1.89;100.00;97344.84;5068232;28;19960;-59
2022/12/13 04:21:15;;;;;;;;;;;;;;;-2.31;100.00;97348.53;5068326;28;19974;-59
2022/12/13 04:23:41;;;;;;;;;;;;;;;-2.69;100.00;97355.22;5067257;28;19990;-59
2022/12/13 04:26:08;;;;;;;;;;;;;;;-2.96;100.00;97341.16;5068497;28;19952;-59
2022/12/13 04:28:36;;;;;;;;;;;;;;;-2.92;100.00;97348.44;5061519;28;19963;-59
2022/12/13 04:31:02;;;;;;;;;;;;;;;-3.02;100.00;97342.75;5072813;28;19948;-59
2022/12/13 04:33:31;;;;;;;;;;;;;;;-3.09;100.00;97341.88;5072609;28;19925;-59
2022/12/13 04:35:57;;;;;;;;;;;;;;;-2.68;100.00;97339.31;5072773;28;19925;-59
2022/12/13 04:38:24;;;;;;;;;;;;;;;-2.09;100.00;97336.94;5072701;28;20542;-60
2022/12/13 04:40:50;;;;;;;;;;;;;;;-1.89;100.00;97339.63;5072519;28;20011;-59
2022/12/13 04:43:16;;;;;;;;;;;;;;;-1.49;100.00;97346.53;5072612;28;19932;-58
2022/12/13 04:45:44;;;;;;;;;;;;;;;-1.58;100.00;97331.22;5072738;28;20052;-59
2022/12/13 04:48:10;;;;;;;;;;;;;;;-2.47;100.00;97349.66;5073100;28;20039;-60
2022/12/13 04:50:37;;;;;;;;;;;;;;;-3.19;100.00;97345.84;5073058;28;20029;-59
2022/12/13 04:53:03;;;;;;;;;;;;;;;-3.22;100.00;97341.00;5071536;28;19993;-59
2022/12/13 04:55:29;;;;;;;;;;;;;;;-3.52;100.00;97338.56;5072251;28;20680;-59
2022/12/13 04:57:56;;;;;;;;;;;;;;;-2.82;100.00;97342.88;5072094;28;19959;-58
2022/12/13 05:00:22;;;;;;;;;;;;;;;-2.72;100.00;97332.84;5072018;28;20024;-59
2022/12/13 05:02:50;;;;;;;;;;;;;;;-2.15;100.00;97329.88;5072337;28;19967;-59
2022/12/13 05:05:16;;;;;;;;;;;;;;;-2.05;100.00;97335.56;5072933;28;19956;-59
2022/12/13 05:07:42;;;;;;;;;;;;;;;-1.75;100.00;97326.34;5072771;28;20039;-59
2022/12/13 05:10:09;;;;;;;;;;;;;;;-2.23;100.00;97317.00;5072747;28;19988;-59
2022/12/13 05:12:36;;;;;;;;;;;;;;;-2.52;100.00;97330.34;5064461;28;20008;-60
2022/12/13 05:15:02;;;;;;;;;;;;;;;-1.76;100.00;97321.28;5072615;28;20352;-60
2022/12/13 05:17:28;;;;;;;;;;;;;;;-1.95;100.00;97320.25;5072955;28;19953;-59
2022/12/13 05:19:56;;;;;;;;;;;;;;;-2.12;100.00;97313.78;5072387;28;19925;-59
2022/12/13 05:22:23;;;;;;;;;;;;;;;-2.29;100.00;97326.41;5070810;28;19929;-59
2022/12/13 05:24:49;;;;;;;;;;;;;;;-2.67;100.00;97330.50;5071794;28;20000;-59
2022/12/13 05:27:15;;;;;;;;;;;;;;;-2.87;100.00;97330.38;5071956;28;19980;-59
2022/12/13 05:29:41;;;;;;;;;;;;;;;-3.15;100.00;97331.38;5071867;28;19935;-58
2022/12/13 05:32:08;;;;;;;;;;;;;;;-3.39;100.00;97330.03;5072248;28;20007;-60
2022/12/13 05:34:34;;;;;;;;;;;;;;;-3.71;100.00;97323.53;5072004;28;19939;-59
2022/12/13 05:37:02;;;;;;;;;;;;;;;-2.89;100.00;97321.13;5071717;28;19999;-59
2022/12/13 05:39:28;;;;;;;;;;;;;;;-2.60;100.00;97331.31;5071585;28;19975;-59
2022/12/13 05:41:55;;;;;;;;;;;;;;;-2.58;100.00;97318.88;5071478;28;20105;-60
2022/12/13 05:44:22;;;;;;;;;;;;;;;-2.92;100.00;97331.94;5072154;28;20023;-59
2022/12/13 05:46:48;;;;;;;;;;;;;;;-3.02;100.00;97336.72;5071856;28;20024;-58
2022/12/13 05:49:14;;;;;;;;;;;;;;;-3.09;100.00;97341.06;5071792;28;19988;-59
2022/12/13 05:51:41;;;;;;;;;;;;;;;-3.28;100.00;97337.34;5071384;28;20048;-59
2022/12/13 05:54:08;;;;;;;;;;;;;;;-3.30;100.00;97339.31;5069886;28;20357;-58
2022/12/13 05:56:35;;;;;;;;;;;;;;;-2.94;100.00;97333.97;5063077;28;19955;-59
2022/12/13 05:59:01;;;;;;;;;;;;;;;-2.85;100.00;97335.41;5070787;28;19960;-60
2022/12/13 06:01:27;;;;;;;;;;;;;;;-2.20;100.00;97329.69;5070861;28;20300;-59
2022/12/13 06:03:54;;;;;;;;;;;;;;;-2.51;100.00;97329.34;5070491;28;19935;-59
2022/12/13 06:06:20;;;;;;;;;;;;;;;-2.17;100.00;97324.84;5070489;28;19984;-58
2022/12/13 06:08:46;;;;;;;;;;;;;;;-2.01;100.00;97330.75;5070524;28;19980;-59
2022/12/13 06:11:15;;;;;;;;;;;;;;;-2.31;100.00;97315.34;5070652;28;19988;-59
2022/12/13 06:13:41;;;;;;;;;;;;;;;-2.19;100.00;97313.78;5070289;28;19925;-59
2022/12/13 06:16:08;;;;;;;;;;;;;;;-2.20;100.00;97319.22;5070288;28;19984;-58
2022/12/13 06:18:35;;;;;;;;;;;;;;;-1.84;100.00;97324.94;5070152;28;20000;-59
2022/12/13 06:21:02;;;;;;;;;;;;;;;-2.09;100.00;97320.44;5070247;28;19963;-59
2022/12/13 06:23:29;;;;;;;;;;;;;;;-2.86;100.00;97324.16;5069156;28;19967;-58
2022/12/13 06:25:56;;;;;;;;;;;;;;;-3.51;100.00;97319.28;5070301;28;19925;-59
2022/12/13 06:28:24;;;;;;;;;;;;;;;-3.94;100.00;97331.56;5070362;28;20019;-59
2022/12/13 06:30:51;;;;;;;;;;;;;;;-3.96;100.00;97322.31;5070647;28;19984;-59
2022/12/13 06:33:17;;;;;;;;;;;;;;;-4.28;100.00;97330.59;5070509;28;19992;-59
2022/12/13 06:35:44;;;;;;;;;;;;;;;-4.20;100.00;97326.06;5070362;28;20051;-59
2022/12/13 06:38:11;;;;;;;;;;;;;;;-4.46;100.00;97331.00;5070204;28;20039;-58
2022/12/13 06:40:37;;;;;;;;;;;;;;;-4.04;100.00;97319.81;5070294;28;19925;-58
2022/12/13 06:43:04;;;;;;;;;;;;;;;-4.08;100.00;97323.78;5069906;28;19925;-58
2022/12/13 06:45:32;;;;;;;;;;;;;;;-4.12;100.00;97323.38;5070098;28;19984;-58
2022/12/13 06:47:58;;;;;;;;;;;;;;;-3.71;100.00;97327.97;5070048;28;19925;-58
2022/12/13 06:50:24;;;;;;;;;;;;;;;-3.11;100.00;97327.41;5069995;28;20023;-59
2022/12/13 06:52:51;;;;;;;;;;;;;;;-2.25;100.00;97325.03;5067849;28;19936;-60
2022/12/13 06:55:17;;;;;;;;;;;;;;;-2.26;100.00;97331.25;5070014;28;19963;-59
2022/12/13 06:57:44;;;;;;;;;;;;;;;-2.24;100.00;97325.84;5069979;28;19936;-58
2022/12/13 07:00:10;;;;;;;;;;;;;;;-2.50;100.00;97326.53;5069718;28;20019;-58
2022/12/13 07:02:38;;;;;;;;;;;;;;;-2.71;100.00;97326.63;5069829;28;19931;-59
2022/12/13 07:05:05;;;;;;;;;;;;;;;-3.07;100.00;97334.69;5069704;28;20013;-59
2022/12/13 07:07:31;;;;;;;;;;;;;;;-2.86;100.00;97337.22;5069710;28;19964;-58
2022/12/13 07:09:57;;;;;;;;;;;;;;;-2.29;100.00;97329.03;5069760;28;19932;-59
2022/12/13 07:12:24;;;;;;;;;;;;;;;-2.50;100.00;97336.19;5069826;28;19996;-59
2022/12/13 07:14:50;;;;;;;;;;;;;;;-2.71;100.00;97329.25;5069962;28;20431;-59
2022/12/13 07:17:17;;;;;;;;;;;;;;;-2.91;100.00;97341.41;5069545;28;19928;-59
2022/12/13 07:19:44;;;;;;;;;;;;;;;-2.90;100.00;97332.56;5069518;28;19989;-60
2022/12/13 07:22:11;;;;;;;;;;;;;;;-2.78;100.00;97341.47;5068455;28;20004;-59
2022/12/13 07:24:37;;;;;;;;;;;;;;;-2.61;100.00;97340.16;5069312;28;19980;-61
2022/12/13 07:27:04;;;;;;;;;;;;;;;-3.19;100.00;97341.44;5069557;28;19925;-59
2022/12/13 07:29:30;;;;;;;;;;;;;;;-3.23;100.00;97342.00;5069500;28;19964;-59
2022/12/13 07:31:56;;;;;;;;;;;;;;;-3.55;100.00;97341.53;5069271;28;19987;-59
2022/12/13 07:34:23;;;;;;;;;;;;;;;-3.46;100.00;97335.19;5069161;28;19929;-59
2022/12/13 07:36:50;;;;;;;;;;;;;;;-3.11;100.00;97335.25;5069358;28;19960;-60
2022/12/13 07:39:17;;;;;;;;;;;;;;;-2.41;100.00;97332.41;5069848;28;20005;-58
2022/12/13 07:41:43;;;;;;;;;;;;;;;-2.28;100.00;97335.88;5069219;28;19925;-59
2022/12/13 07:44:09;;;;;;;;;;;;;;;-2.21;100.00;97326.25;5068980;28;20055;-59
2022/12/13 07:46:36;;;;;;;;;;;;;;;-1.81;100.00;97321.91;5060989;28;20000;-59
2022/12/13 07:49:03;;;;;;;;;;;;;;;-2.35;100.00;97342.06;5069312;28;19960;-59
2022/12/13 07:51:29;;;;;;;;;;;;;;;-2.26;100.00;97344.31;5069064;28;19956;-59
2022/12/13 07:53:57;;;;;;;;;;;;;;;-1.82;100.00;97345.66;5067788;28;19988;-59
2022/12/13 07:56:23;;;;;;;;;;;;;;;-2.19;100.00;97344.34;5069019;28;19960;-59
2022/12/13 07:58:49;;;;;;;;;;;;;;;-2.26;100.00;97344.31;5068913;28;20004;-58
2022/12/13 08:01:16;;;;;;;;;;;;;;;-1.95;100.00;97340.41;5068748;28;19959;-60
2022/12/13 08:03:42;;;;;;;;;;;;;;;-1.94;100.00;97347.25;5068728;28;19935;-58
2022/12/13 08:06:10;;;;;;;;;;;;;;;-1.84;100.00;97348.47;5069026;28;19960;-59
2022/12/13 08:08:37;;;;;;;;;;;;;;;-1.80;100.00;97349.72;5060778;28;20003;-59
2022/12/13 08:11:06;;;;;;;;;;;;;;;-2.45;100.00;97350.31;5068908;28;20000;-59
2022/12/13 08:13:32;;;;;;;;;;;;;;;-1.88;100.00;97341.22;5068833;28;19992;-59
2022/12/13 08:16:00;;;;;;;;;;;;;;;-1.81;100.00;97337.63;5068728;28;19979;-59
2022/12/13 08:18:26;;;;;;;;;;;;;;;-1.60;100.00;97341.06;5068839;28;19925;-59
2022/12/13 08:20:52;;;;;;;;;;;;;;;-1.38;100.00;97338.06;5068805;28;19964;-60
2022/12/13 08:23:19;;;;;;;;;;;;;;;-1.47;100.00;97331.41;5067354;28;19924;-59
2022/12/13 08:25:50;;;;;;;;;;;;;;;-1.40;100.00;97334.84;5068123;28;20679;-58
2022/12/13 08:28:18;;;;;;;;;;;;;;;-1.34;99.64;97333.22;5067453;28;19929;-59
2022/12/13 08:30:44;;;;;;;;;;;;;;;-1.47;100.00;97344.50;5068872;28;19932;-59
2022/12/13 08:33:10;;;;;;;;;;;;;;;-1.53;99.74;97349.72;5068690;28;19992;-59
2022/12/13 08:35:37;;;;;;;;;;;;;;;-1.60;100.00;97341.06;5068763;28;20005;-59
2022/12/13 08:38:03;;;;;;;;;;;;;;;-1.45;100.00;97349.53;5068778;28;19936;-59
2022/12/13 08:40:29;;;;;;;;;;;;;;;-1.30;99.45;97348.31;5068765;28;19924;-59
2022/12/13 08:42:56;;;;;;;;;;;;;;;-2.12;97.62;97354.84;5068450;28;20000;-60
2022/12/13 08:45:24;;;;;;;;;;;;;;;-2.22;100.00;97355.19;5068644;28;19925;-59
2022/12/13 08:47:50;;;;;;;;;;;;;;;-2.00;100.00;97359.31;5068611;28;19971;-59
2022/12/13 08:50:17;;;;;;;;;;;;;;;-2.62;100.00;97363.88;5068540;28;19995;-60
2022/12/13 08:52:44;;;;;;;;;;;;;;;-2.22;100.00;97361.25;5067497;28;19995;-59
2022/12/13 08:55:11;;;;;;;;;;;;;;;-1.93;100.00;97364.56;5068589;28;20305;-60
2022/12/13 08:57:37;;;;;;;;;;;;;;;-1.75;100.00;97372.66;5068445;28;19925;-59
2022/12/13 09:00:04;;;;;;;;;;;;;;;-1.41;100.00;97364.66;5068361;28;20374;-60
2022/12/13 09:02:31;;;;;;;;;;;;;;;-1.49;100.00;97364.84;5068444;28;20679;-59
2022/12/13 09:04:58;;;;;;;;;;;;;;;-2.13;100.00;97369.72;5068576;28;19984;-59
2022/12/13 09:07:24;;;;;;;;;;;;;;;-2.04;100.00;97368.53;5068311;28;19980;-58
2022/12/13 09:09:50;;;;;;;;;;;;;;;-1.93;100.00;97364.56;5068343;28;20601;-59
2022/12/13 09:12:17;;;;;;;;;;;;;;;-2.00;100.00;97374.19;5068429;28;20027;-59
2022/12/13 09:14:43;;;;;;;;;;;;;;;-1.53;100.00;97371.50;5068345;28;19955;-59
2022/12/13 09:17:09;;;;;;;;;;;;;;;-1.37;100.00;97371.09;5071864;28;19929;-61
2022/12/13 09:19:37;;;;;;;;;;;;;;;-1.54;100.00;97362.00;5064012;28;19925;-59
2022/12/13 09:22:03;;;;;;;;;;;;;;;-2.11;100.00;97372.97;5071818;28;19931;-59
2022/12/13 09:24:30;;;;;;;;;;;;;;;-1.66;100.00;97363.59;5071470;28;20095;-60
2022/12/13 09:26:56;;;;;;;;;;;;;;;-1.50;100.00;97365.84;5071844;28;19965;-60
2022/12/13 09:29:22;;;;;;;;;;;;;;;-1.49;100.00;97359.63;5072452;28;19925;-58
2022/12/13 09:31:49;;;;;;;;;;;;;;;-1.55;100.00;97349.94;5072218;28;19960;-59
2022/12/13 09:34:15;;;;;;;;;;;;;;;-1.42;100.00;97347.31;5072218;28;20016;-59
2022/12/13 09:36:43;;;;;;;;;;;;;;;-1.25;100.00;97340.69;5072132;28;19925;-59
2022/12/13 09:39:10;;;;;;;;;;;;;;;-1.11;100.00;97344.88;5071944;28;19967;-60
2022/12/13 09:41:39;;;;;;;;;;;;;;;-1.52;100.00;97335.63;5063958;28;19928;-59
2022/12/13 09:44:07;;;;;;;;;;;;;;;-1.56;100.00;97339.66;5072600;28;19975;-58
2022/12/13 09:46:35;;;;;;;;;;;;;;;-1.40;100.00;97345.31;5072305;28;20008;-59
2022/12/13 09:49:03;;;;;;;;;;;;;;;-1.25;100.00;97337.25;5072054;28;19967;-60
2022/12/13 09:51:31;;;;;;;;;;;;;;;-1.20;100.00;97337.44;5071783;28;19999;-59
2022/12/13 09:54:00;;;;;;;;;;;;;;;-1.59;100.00;97343.47;5070675;28;19925;-61
2022/12/13 09:56:27;;;;;;;;;;;;;;;-1.65;100.00;97341.66;5071697;28;19949;-60
2022/12/13 09:58:55;;;;;;;;;;;;;;;-1.50;100.00;97339.66;5071663;28;19928;-60
2022/12/13 10:01:21;;;;;;;;;;;;;;;-1.34;100.00;97339.28;5071558;28;19925;-59
2022/12/13 10:03:48;;;;;;;;;;;;;;;-1.27;100.00;97321.72;5071353;28;19935;-59
2022/12/13 10:06:16;;;;;;;;;;;;;;;-1.12;100.00;97324.97;5071242;28;19932;-59
2022/12/13 10:08:44;;;;;;;;;;;;;;;-1.05;100.00;97321.53;5071382;28;19925;-59
2022/12/13 10:11:13;;;;;;;;;;;;;;;-0.99;100.00;97312.84;5071108;28;19984;-59
2022/12/13 10:13:41;;;;;;;;;;;;;;;-0.89;100.00;97315.81;5071421;28;19981;-59
2022/12/13 10:16:11;;;;;;;;;;;;;;;-0.76;100.00;97310.56;5071291;28;19925;-60
2022/12/13 10:18:39;;;;;;;;;;;;;;;-0.68;99.37;97294.63;5063461;28;19924;-59
2022/12/13 10:21:08;;;;;;;;;;;;;;;-0.67;98.69;97304.06;5071082;28;19924;-59
2022/12/13 10:23:35;;;;;;;;;;;;;;;-0.83;99.81;97294.84;5069745;28;19992;-58
2022/12/13 10:26:01;;;;;;;;;;;;;;;-0.74;99.74;97298.03;5070789;28;19925;-59
2022/12/13 10:28:30;;;;;;;;;;;;;;;-0.71;99.99;97282.69;5071073;28;19979;-59
2022/12/13 10:30:58;;;;;;;;;;;;;;;-0.67;99.22;97283.91;5070716;28;19964;-59
2022/12/13 10:33:25;;;;;;;;;;;;;;;-0.65;99.42;97284.50;5070856;28;19932;-58
2022/12/13 10:36:09;;;;;;;;;;;;;;;-0.56;99.05;97279.84;5071099;28;19967;-59
2022/12/13 10:38:38;;;;;;;;;;;;;;;-0.50;98.47;97286.06;5071131;28;19939;-59
2022/12/13 10:41:25;;;;;;;;;;;;;;;-0.48;98.04;97271.72;5070812;28;19974;-59
2022/12/13 10:44:07;;;;;;;;;;;;;;;-0.52;97.76;97274.97;5064665;28;19935;-60
2022/12/13 10:46:33;;;;;;;;;;;;;;;-1.06;100.00;97275.34;5070513;28;19999;-59
2022/12/13 10:49:00;;;;;;;;;;;;;;;-1.12;100.00;97275.19;5070472;28;19960;-59
2022/12/13 10:51:27;;;;;;;;;;;;;;;-0.91;100.00;97275.91;5070440;28;19967;-59
2022/12/13 10:53:55;;;;;;;;;;;;;;;-0.92;100.00;97276.91;5069257;28;19956;-58
2022/12/13 10:56:22;;;;;;;;;;;;;;;-0.92;100.00;97280.34;5052672;28;19928;-59
2022/12/13 10:58:50;;;;;;;;;;;;;;;-0.89;100.00;97281.75;5070223;28;20015;-60
2022/12/13 11:01:22;;;;;;;;;;;;;;;-0.76;100.00;97272.03;5070050;28;19928;-59
2022/12/13 11:03:56;;;;;;;;;;;;;;;-0.89;100.00;97272.09;5069875;28;19944;-59
2022/12/13 11:06:22;;;;;;;;;;;;;;;-0.84;100.00;97266.22;5070326;28;19968;-58
2022/12/13 11:08:49;;;;;;;;;;;;;;;-1.01;100.00;97260.63;5069908;28;19925;-60
2022/12/13 11:11:16;;;;;;;;;;;;;;;-0.93;100.00;97267.47;5070264;28;19967;-60
2022/12/13 11:13:45;;;;;;;;;;;;;;;-0.91;100.00;97266.25;5069826;28;19988;-59
2022/12/13 11:16:20;;;;;;;;;;;;;;;-0.90;100.00;97267.06;5069943;28;19925;-58
2022/12/13 11:18:51;;;;;;;;;;;;;;;-1.00;100.00;97254.38;5070104;28;19984;-59
2022/12/13 11:21:23;;;;;;;;;;;;;;;-1.12;100.00;97254.22;5070247;28;20046;-60
2022/12/13 11:23:49;;;;;;;;;;;;;;;-1.12;100.00;97254.22;5068659;28;19975;-60
2022/12/13 11:26:17;;;;;;;;;;;;;;;-1.34;100.00;97255.47;5070138;28;19920;-59
2022/12/13 11:28:55;;;;;;;;;;;;;;;-1.53;100.00;97248.44;5069913;28;19988;-59
2022/12/13 11:31:25;;;;;;;;;;;;;;;-1.73;100.00;97245.00;5069843;28;19931;-58
2022/12/13 11:33:59;;;;;;;;;;;;;;;-1.66;100.00;97241.38;5069842;28;20023;-60
2022/12/13 11:36:31;;;;;;;;;;;;;;;-1.38;100.00;97243.78;5069527;28;19988;-59
2022/12/13 11:39:03;;;;;;;;;;;;;;;-1.36;100.00;97233.88;5069126;28;19975;-58
2022/12/13 11:41:34;;;;;;;;;;;;;;;-1.34;100.00;97233.69;5069736;28;19956;-59
2022/12/13 11:44:02;;;;;;;;;;;;;;;-1.29;100.00;97245.16;5069475;28;19928;-59
2022/12/13 11:46:34;;;;;;;;;;;;;;;-1.33;100.00;97241.34;5069860;28;19929;-59
2022/12/13 11:49:06;;;;;;;;;;;;;;;-1.01;100.00;97237.03;5069970;28;19956;-60
2022/12/13 11:51:38;;;;;;;;;;;;;;;-1.05;100.00;97232.44;5070046;28;19974;-58
2022/12/13 11:54:09;;;;;;;;;;;;;;;-1.01;100.00;97229.19;5068399;28;19980;-60
2022/12/13 11:56:37;;;;;;;;;;;;;;;-0.78;100.00;97226.09;5061188;28;19925;-59
2022/12/13 11:59:09;;;;;;;;;;;;;;;-0.70;100.00;97228.47;5069562;28;19979;-59
2022/12/13 12:01:39;;;;;;;;;;;;;;;-0.74;100.00;97225.44;5069250;28;19960;-59
2022/12/13 12:04:12;;;;;;;;;;;;;;;-0.90;100.00;97225.13;5069334;28;19924;-60
2022/12/13 12:06:42;;;;;;;;;;;;;;;-1.08;100.00;97223.94;5061442;28;19932;-60
2022/12/13 12:09:13;;;;;;;;;;;;;;;-1.10;100.00;97217.31;5069267;28;19924;-58
2022/12/13 12:11:44;;;;;;;;;;;;;;;-0.96;100.00;97215.47;5061526;28;19989;-58
2022/12/13 12:14:14;;;;;;;;;;;;;;;-0.94;100.00;97209.00;5069353;28;19927;-60
2022/12/13 12:16:43;;;;;;;;;;;;;;;-0.75;100.00;97202.06;5061803;28;19963;-59
2022/12/13 12:19:13;;;;;;;;;;;;;;;-0.80;100.00;97212.38;5069294;28;19928;-59
2022/12/13 12:21:49;;;;;;;;;;;;;;;-0.84;100.00;97213.81;5061540;28;19920;-59
2022/12/13 12:24:21;;;;;;;;;;;;;;;-0.92;100.00;97216.66;5067793;28;19935;-60
2022/12/13 12:26:52;;;;;;;;;;;;;;;-0.85;100.00;97206.94;5068888;28;19956;-59
2022/12/13 12:29:39;;;;;;;;;;;;;;;-0.68;100.00;97192.38;5069037;28;19963;-60
2022/12/13 12:32:12;;;;;;;;;;;;;;;-0.89;100.00;97195.25;5069046;28;19931;-59
2022/12/13 12:34:45;;;;;;;;;;;;;;;-0.70;100.00;97186.50;5061068;28;20361;-60
2022/12/13 12:37:19;;;;;;;;;;;;;;;-0.59;100.00;97188.50;5069126;28;20003;-60
2022/12/13 12:39:54;;;;;;;;;;;;;;;-0.64;100.00;97193.53;5068880;28;19920;-60
2022/12/13 12:42:33;;;;;;;;;;;;;;;-0.59;100.00;97184.03;5069060;28;19967;-59
2022/12/13 12:45:13;;;;;;;;;;;;;;;-0.53;100.00;97190.28;5069095;28;20317;-59
2022/12/13 12:47:46;;;;;;;;;;;;;;;-0.75;100.00;97187.16;5061381;28;19964;-60